Time;durP1;ratioP1;P1;durP2;ratioP2;P2;SDS_P1;SDS_P2;PMS_P1;PMS_P2;Temp;Humidity;BMP_temperature;BMP_pressure;BME280_temperature;BME280_humidity;BME280_pressure;Samples;Min_cycle;Max_cycle;Signal;HPM_P1;HPM_P2
2022/11/29 00:01:22;;;;;;;15.17;12.37;;;;;;;8.77;97.25;98401.31;4967366;28;103434;-60
2022/11/29 00:03:53;;;;;;;15.00;11.00;;;;;;;8.73;97.45;98392.78;4974084;28;102596;-60
2022/11/29 00:06:23;;;;;;;16.67;13.23;;;;;;;8.78;97.58;98396.91;4988505;28;103907;-60
2022/11/29 00:08:51;;;;;;;13.20;10.50;;;;;;;8.83;97.85;98394.78;4988226;28;104574;-60
2022/11/29 00:14:04;;;;;;;13.33;9.83;;;;;;;8.94;97.53;98389.59;4987403;28;102671;-60
2022/11/29 00:16:32;;;;;;;18.03;13.50;;;;;;;8.89;96.99;98391.72;4989182;28;103841;-61
2022/11/29 00:19:02;;;;;;;15.03;12.50;;;;;;;8.94;96.95;98392.22;4969883;28;103374;-60
2022/11/29 00:21:30;;;;;;;13.27;11.20;;;;;;;8.92;97.06;98391.50;4991872;28;103252;-61
2022/11/29 00:23:58;;;;;;;10.80;9.47;;;;;;;8.95;97.04;98399.19;4969449;28;103224;-61
2022/11/29 00:30:44;;;;;;;14.57;9.23;;;;;;;8.82;97.99;98380.75;4986344;28;103103;-60
2022/11/29 00:33:12;;;;;;;12.47;9.27;;;;;;;8.72;98.61;98391.13;4971490;28;104244;-60
2022/11/29 00:35:41;;;;;;;9.73;8.03;;;;;;;8.73;98.91;98387.50;4968702;28;102962;-61
2022/11/29 00:38:12;;;;;;;13.67;10.83;;;;;;;8.73;98.62;98391.94;4985935;28;103977;-61
2022/11/29 00:40:40;;;;;;;15.93;12.37;;;;;;;8.69;98.81;98391.31;4988559;28;103453;-61
2022/11/29 00:43:07;;;;;;;14.50;9.93;;;;;;;8.69;99.16;98391.31;4987687;28;103134;-61
2022/11/29 00:45:35;;;;;;;17.27;10.50;;;;;;;8.59;99.10;98390.25;4985051;28;102726;-60
2022/11/29 00:48:04;;;;;;;12.27;10.10;;;;;;;8.69;99.59;98396.59;4989520;28;104206;-60
2022/11/29 00:55:00;;;;;;;8.87;7.97;;;;;;;8.82;99.96;98393.09;4986180;28;103063;-60
2022/11/29 00:57:28;;;;;;;16.37;12.27;;;;;;;8.83;98.69;98394.78;4988906;28;102704;-60
2022/11/29 00:59:56;;;;;;;15.40;12.00;;;;;;;8.82;98.57;98395.72;4987959;28;103647;-60
2022/11/29 01:02:23;;;;;;;13.30;9.50;;;;;;;8.84;98.65;98396.47;4972205;28;104253;-60
2022/11/29 01:04:54;;;;;;;14.37;12.07;;;;;;;8.62;99.12;98400.59;4970866;28;103269;-60
2022/11/29 01:07:22;;;;;;;14.33;11.83;;;;;;;8.59;100.00;98398.16;4973269;28;103795;-60
2022/11/29 01:09:50;;;;;;;12.23;10.07;;;;;;;8.70;100.00;98403.53;4991172;28;103619;-60
2022/11/29 01:12:19;;;;;;;13.17;11.20;;;;;;;8.70;99.64;98403.53;4987957;28;103633;-60
2022/11/29 01:14:47;;;;;;;11.50;9.20;;;;;;;8.76;99.64;98402.25;4984705;28;103244;-60
2022/11/29 01:17:15;;;;;;;13.47;10.17;;;;;;;8.79;99.39;98398.56;4986913;28;102663;-60
2022/11/29 01:19:45;;;;;;;13.07;10.83;;;;;;;8.73;99.39;98400.69;4986007;28;103083;-60
2022/11/29 01:27:08;;;;;;;10.50;8.40;;;;;;;8.81;99.01;98404.59;4987004;28;103051;-60
2022/11/29 01:29:38;;;;;;;11.20;10.00;;;;;;;8.80;98.86;98402.91;4987874;28;102650;-60
2022/11/29 01:32:06;;;;;;;12.03;9.37;;;;;;;8.80;98.81;98403.75;4986240;28;103615;-60
2022/11/29 01:34:34;;;;;;;9.87;8.30;;;;;;;8.83;98.90;98402.69;4986767;28;104169;-61
2022/11/29 01:37:02;;;;;;;15.90;11.00;;;;;;;8.78;98.22;98404.81;4985570;28;103195;-60
2022/11/29 01:39:32;;;;;;;12.57;9.40;;;;;;;8.80;98.73;98408.16;4984440;28;102757;-60
2022/11/29 01:42:01;;;;;;;13.13;11.33;;;;;;;8.79;98.14;98409.09;4971838;28;104033;-61
2022/11/29 01:45:02;;;;;;;9.83;8.43;;;;;;;8.83;98.67;98410.59;4987551;28;103949;-61
2022/11/29 01:47:30;;;;;;;11.93;9.97;;;;;;;8.86;98.60;98407.75;4986396;28;103199;-61
2022/11/29 01:50:02;;;;;;;9.70;8.67;;;;;;;8.93;98.05;98407.19;4986495;28;102649;-60
2022/11/29 01:52:32;;;;;;;13.00;10.37;;;;;;;8.90;97.82;98409.22;4987939;28;102752;-60
2022/11/29 01:55:03;;;;;;;14.97;12.43;;;;;;;8.69;98.78;98404.50;4987055;28;103238;-60
2022/11/29 01:57:36;;;;;;;13.07;10.60;;;;;;;8.82;98.65;98401.84;4989076;28;103211;-61
2022/11/29 02:00:10;;;;;;;13.87;12.23;;;;;;;8.73;98.95;98403.31;4991051;28;102623;-61
2022/11/29 02:02:44;;;;;;;12.97;10.73;;;;;;;8.85;99.17;98406.03;4988839;28;103662;-60
2022/11/29 02:05:14;;;;;;;12.10;10.20;;;;;;;8.71;99.68;98404.38;4985259;28;103142;-61
2022/11/29 02:07:46;;;;;;;13.20;10.47;;;;;;;8.70;99.61;98403.53;4990507;28;103198;-60
2022/11/29 02:14:49;;;;;;;10.70;8.70;;;;;;;8.94;99.36;98400.13;4985384;28;103780;-60
2022/11/29 02:17:30;;;;;;;10.00;8.27;;;;;;;8.93;99.03;98401.06;4990421;28;104256;-61
2022/11/29 02:28:18;;;;;;;8.90;7.80;;;;;;;9.09;99.04;98404.34;4955869;28;103669;-60
2022/11/29 02:31:01;;;;;;;9.20;8.00;;;;;;;9.11;98.71;98405.91;4970377;28;103775;-60
2022/11/29 02:33:54;;;;;;;7.77;6.67;;;;;;;9.13;98.34;98406.63;4968140;28;104188;-60
2022/11/29 02:36:52;;;;;;;13.10;9.63;;;;;;;9.13;98.39;98411.91;4984263;28;102672;-60
2022/11/29 02:39:38;;;;;;;8.37;6.93;;;;;;;9.15;98.17;98406.53;4984112;28;102692;-60
2022/11/29 02:42:47;;;;;;;9.10;7.37;;;;;;;9.17;98.18;98402.84;4968900;28;104534;-60
2022/11/29 02:45:37;;;;;;;9.03;7.50;;;;;;;9.18;97.92;98406.28;4987170;28;102942;-60
2022/11/29 02:48:22;;;;;;;9.17;7.90;;;;;;;9.19;97.69;98410.63;4987772;28;102628;-60
2022/11/29 02:50:57;;;;;;;11.37;9.90;;;;;;;9.11;97.45;98407.69;4988174;28;103405;-60
2022/11/29 02:53:31;;;;;;;11.77;10.30;;;;;;;9.15;97.22;98409.19;4969000;28;104432;-60
2022/11/29 02:56:08;;;;;;;9.40;8.13;;;;;;;9.18;97.41;98408.94;4987194;28;103202;-60
2022/11/29 02:58:43;;;;;;;13.60;12.03;;;;;;;9.01;97.14;98409.31;4984074;28;102876;-61
2022/11/29 03:01:19;;;;;;;10.67;8.80;;;;;;;9.02;98.11;98413.63;4988587;28;102647;-60
2022/11/29 03:03:54;;;;;;;13.63;10.60;;;;;;;9.00;98.14;98410.25;4986142;28;103745;-60
2022/11/29 03:06:33;;;;;;;13.20;10.40;;;;;;;9.03;98.27;98410.88;4989036;28;103221;-60
2022/11/29 03:09:08;;;;;;;11.20;8.03;;;;;;;9.10;98.53;98412.13;4985805;28;102718;-60
2022/11/29 03:11:45;;;;;;;12.43;10.87;;;;;;;9.10;97.95;98414.75;4991061;28;103569;-60
2022/11/29 03:14:24;;;;;;;9.57;7.77;;;;;;;9.15;98.11;98419.72;4987612;28;103350;-61
2022/11/29 03:17:01;;;;;;;12.10;9.70;;;;;;;9.17;98.01;98418.66;4969791;28;104424;-61
2022/11/29 03:20:03;;;;;;;10.30;8.13;;;;;;;9.17;97.98;98431.84;4986620;28;103223;-60
2022/11/29 03:27:01;;;;;;;9.40;8.50;;;;;;;9.23;97.42;98427.94;4985107;28;103799;-60
2022/11/29 03:29:36;;;;;;;10.70;9.57;;;;;;;9.18;97.15;98435.28;4987453;28;103240;-61
2022/11/29 03:32:11;;;;;;;9.77;8.60;;;;;;;9.23;97.73;98435.84;4967980;28;102797;-60
2022/11/29 03:34:54;;;;;;;7.50;6.70;;;;;;;9.22;98.12;98436.78;4984930;28;103136;-60
2022/11/29 03:37:30;;;;;;;11.60;9.27;;;;;;;9.28;97.86;98429.28;4984921;28;103740;-60
2022/11/29 03:40:06;;;;;;;10.77;8.40;;;;;;;9.27;98.28;98424.94;4965461;28;104278;-60
2022/11/29 03:42:43;;;;;;;10.43;7.77;;;;;;;9.33;98.55;98426.31;4992583;28;102832;-60
2022/11/29 03:45:18;;;;;;;11.60;8.90;;;;;;;9.27;98.63;98429.38;4974961;28;104290;-60
2022/11/29 03:47:54;;;;;;;12.17;10.10;;;;;;;9.25;98.43;98431.28;4995227;28;104053;-61
2022/11/29 03:50:28;;;;;;;10.73;9.33;;;;;;;9.26;98.53;98432.97;4990597;28;103218;-60
2022/11/29 03:53:03;;;;;;;10.03;8.30;;;;;;;9.29;98.11;98438.03;4991080;28;102698;-61
2022/11/29 03:55:46;;;;;;;13.10;11.67;;;;;;;9.26;97.97;98443.53;4993603;28;103852;-60
2022/11/29 03:58:39;;;;;;;10.57;9.27;;;;;;;9.26;98.44;98438.25;4987988;28;104278;-61
2022/11/29 04:01:39;;;;;;;9.13;7.73;;;;;;;9.30;98.45;98439.69;4988035;28;103243;-61
2022/11/29 04:08:49;;;;;;;7.97;6.53;;;;;;;9.34;98.16;98441.19;4983800;28;103906;-61
2022/11/29 04:11:35;;;;;;;8.10;7.00;;;;;;;9.30;97.95;98440.56;4985482;28;103265;-60
2022/11/29 04:14:30;;;;;;;7.83;6.70;;;;;;;9.35;97.77;98442.84;4991283;28;102964;-61
2022/11/29 04:17:22;;;;;;;8.63;7.73;;;;;;;9.36;97.85;98446.34;4990568;28;102731;-60
2022/11/29 04:20:36;;;;;;;9.40;7.87;;;;;;;9.29;97.29;98448.59;4990324;28;103817;-60
2022/11/29 04:23:40;;;;;;;8.60;7.40;;;;;;;9.25;97.84;98447.09;4989656;28;103297;-61
2022/11/29 04:26:32;;;;;;;7.63;6.63;;;;;;;9.30;98.10;98448.47;4969739;28;103219;-61
2022/11/29 04:29:30;;;;;;;7.47;6.73;;;;;;;9.31;98.23;98452.78;4986813;28;102802;-60
2022/11/29 04:37:06;;;;;;;6.53;5.87;;;;;;;9.38;97.99;98455.81;4985428;28;104962;-59
2022/11/29 04:39:57;;;;;;;9.33;5.63;;;;;;;9.41;98.21;98466.16;4919801;28;103224;-59
2022/11/29 04:50:23;;;;;;;5.40;4.90;;;;;;;9.40;97.87;98469.75;4970371;28;104182;-59
2022/11/29 04:53:14;;;;;;;4.30;3.90;;;;;;;9.43;97.80;98474.78;4988818;28;103208;-60
2022/11/29 04:55:49;;;;;;;3.87;3.47;;;;;;;9.43;97.32;98469.50;4987941;28;102703;-60
2022/11/29 04:58:24;;;;;;;6.07;4.40;;;;;;;9.40;97.26;98468.91;4992031;28;103933;-60
2022/11/29 05:01:01;;;;;;;3.80;3.43;;;;;;;9.47;97.72;98475.41;4989833;28;103941;-60
2022/11/29 05:03:36;;;;;;;4.90;3.67;;;;;;;9.35;97.72;98473.66;4985779;28;103193;-60
2022/11/29 05:06:18;;;;;;;3.53;3.17;;;;;;;9.37;97.95;98483.16;4968882;28;102992;-60
2022/11/29 05:08:56;;;;;;;3.67;3.27;;;;;;;9.44;97.70;98473.00;4990197;28;103342;-60
2022/11/29 05:11:34;;;;;;;3.80;2.90;;;;;;;9.44;97.65;98483.53;4992229;28;103611;-60
2022/11/29 05:14:10;;;;;;;2.83;2.53;;;;;;;9.44;97.75;98481.75;4990841;28;103279;-60
2022/11/29 05:17:01;;;;;;;3.43;3.13;;;;;;;9.45;97.45;98479.97;4971703;28;103313;-60
2022/11/29 05:19:45;;;;;;;3.70;3.07;;;;;;;9.42;97.72;98486.28;4970204;28;102868;-61
2022/11/29 05:22:35;;;;;;;3.27;2.50;;;;;;;9.44;97.52;98484.38;4969581;28;104178;-61
2022/11/29 05:25:21;;;;;;;3.97;2.80;;;;;;;9.43;97.02;98487.97;4990935;28;103265;-61
2022/11/29 05:36:38;;;;;;;3.50;3.17;;;;;;;9.36;97.83;98494.63;4986781;28;104188;-61
2022/11/29 05:39:21;;;;;;;4.60;3.27;;;;;;;9.38;97.44;98495.38;4986365;28;103261;-61
2022/11/29 05:42:04;;;;;;;3.83;2.50;;;;;;;9.45;97.73;98495.78;4985662;28;103123;-61
2022/11/29 05:44:37;;;;;;;3.10;2.80;;;;;;;9.48;97.26;98496.41;4993495;28;102820;-61
2022/11/29 05:47:08;;;;;;;4.10;3.70;;;;;;;9.45;96.69;98501.91;4991232;28;103226;-61
2022/11/29 05:49:44;;;;;;;5.27;4.17;;;;;;;9.35;96.77;98506.13;4992614;28;103206;-61
2022/11/29 05:52:23;;;;;;;3.87;3.47;;;;;;;9.44;97.36;98505.47;4985461;28;102753;-61
2022/11/29 05:55:10;;;;;;;3.17;2.87;;;;;;;9.48;97.25;98496.41;4995111;28;103508;-61
2022/11/29 05:57:46;;;;;;;4.20;3.80;;;;;;;9.41;96.90;98512.75;4985204;28;103794;-61
2022/11/29 06:00:17;;;;;;;4.30;3.13;;;;;;;9.47;97.52;98510.53;4985025;28;103194;-61
2022/11/29 06:02:55;;;;;;;3.13;2.83;;;;;;;9.45;97.61;98508.97;4986144;28;102711;-61
2022/11/29 06:05:30;;;;;;;3.77;3.37;;;;;;;9.42;97.20;98512.66;4993784;28;103075;-61
2022/11/29 06:08:05;;;;;;;3.93;3.60;;;;;;;9.40;97.00;98511.09;4988565;28;103774;-61
2022/11/29 06:10:39;;;;;;;3.87;3.57;;;;;;;9.27;97.28;98516.38;4934392;28;103354;-61
2022/11/29 06:13:18;;;;;;;3.50;3.20;;;;;;;9.42;97.42;98510.03;4961342;28;102716;-61
2022/11/29 06:16:21;;;;;;;5.30;4.00;;;;;;;9.23;97.35;98522.81;4969809;28;104951;-61
2022/11/29 06:19:29;;;;;;;3.03;2.80;;;;;;;9.34;98.11;98525.53;4970278;28;103771;-61
2022/11/29 06:22:11;;;;;;;5.97;4.63;;;;;;;9.28;98.06;98521.56;4951876;28;104329;-61
2022/11/29 06:24:50;;;;;;;9.77;4.50;;;;;;;9.23;98.30;98528.09;4959614;28;102749;-61
2022/11/29 06:27:38;;;;;;;4.10;3.70;;;;;;;9.29;98.49;98522.41;4964745;28;103796;-62
2022/11/29 06:30:10;;;;;;;4.97;4.20;;;;;;;9.19;98.47;98537.16;4986463;28;103801;-61
2022/11/29 06:32:47;;;;;;;5.70;5.17;;;;;;;9.18;98.50;98535.44;4963584;28;103326;-61
2022/11/29 06:35:31;;;;;;;5.60;5.07;;;;;;;9.25;98.49;98536.72;4990860;28;103207;-61
2022/11/29 06:38:04;;;;;;;6.40;5.70;;;;;;;9.25;98.49;98542.00;4985656;28;102651;-62
2022/11/29 06:40:32;;;;;;;5.23;4.43;;;;;;;9.40;98.05;98543.59;4987549;28;103860;-60
2022/11/29 06:43:04;;;;;;;6.20;5.47;;;;;;;9.29;97.51;98543.50;4985378;28;103188;-61
2022/11/29 06:45:33;;;;;;;5.23;4.73;;;;;;;9.44;97.32;98542.41;4984778;28;102857;-60
2022/11/29 06:48:03;;;;;;;7.80;6.50;;;;;;;9.35;97.41;98547.50;4990414;28;103794;-60
2022/11/29 06:50:40;;;;;;;6.27;5.23;;;;;;;9.39;97.57;98549.78;4971571;28;104111;-60
2022/11/29 06:53:15;;;;;;;7.73;6.93;;;;;;;9.45;96.48;98552.00;4966940;28;104035;-60
2022/11/29 06:55:51;;;;;;;5.07;4.53;;;;;;;9.53;96.66;98547.03;4992657;28;102694;-60
2022/11/29 06:58:34;;;;;;;7.30;6.57;;;;;;;9.44;96.12;98558.22;4991539;28;102704;-60
2022/11/29 07:01:12;;;;;;;5.67;4.77;;;;;;;9.48;96.54;98559.72;4981975;28;103249;-60
2022/11/29 07:04:12;;;;;;;7.23;5.70;;;;;;;9.41;97.19;98558.44;4966976;28;104074;-60
2022/11/29 07:06:40;;;;;;;5.10;4.60;;;;;;;9.47;97.29;98558.00;4987254;28;102996;-61
2022/11/29 07:09:14;;;;;;;5.30;4.80;;;;;;;9.56;96.88;98567.91;4985454;28;102656;-60
2022/11/29 07:11:42;;;;;;;5.53;5.00;;;;;;;9.51;96.66;98570.03;4986656;28;103267;-61
2022/11/29 07:14:12;;;;;;;9.13;7.73;;;;;;;9.47;96.43;98568.56;4985434;28;103275;-61
2022/11/29 07:16:51;;;;;;;7.47;6.70;;;;;;;9.50;96.38;98565.72;4963329;28;102763;-60
2022/11/29 07:19:31;;;;;;;6.27;5.67;;;;;;;9.47;96.49;98573.81;4986207;28;103693;-60
2022/11/29 07:22:05;;;;;;;6.30;5.70;;;;;;;9.48;97.08;98570.25;4981116;28;104365;-61
2022/11/29 07:24:45;;;;;;;9.67;7.67;;;;;;;9.45;96.44;98575.75;4971830;28;104153;-61
2022/11/29 07:27:20;;;;;;;6.90;6.20;;;;;;;9.41;96.52;98579.53;4985324;28;102613;-62
2022/11/29 07:30:07;;;;;;;7.13;6.53;;;;;;;9.39;97.00;98583.22;4988075;28;104650;-61
2022/11/29 07:32:45;;;;;;;6.67;6.07;;;;;;;9.22;97.73;98579.09;4971181;28;104125;-61
2022/11/29 07:35:24;;;;;;;7.60;5.77;;;;;;;9.38;98.17;98585.00;4986292;28;103186;-61
2022/11/29 07:38:00;;;;;;;4.80;3.97;;;;;;;9.52;97.88;98584.91;4995802;28;103239;-61
2022/11/29 07:40:32;;;;;;;6.40;5.80;;;;;;;9.38;98.60;98589.44;4986064;28;103535;-61
2022/11/29 07:43:22;;;;;;;6.30;5.67;;;;;;;9.32;97.91;98585.44;4981682;28;104087;-61
2022/11/29 07:45:52;;;;;;;5.80;5.17;;;;;;;9.44;97.80;98595.13;4979674;28;103780;-61
2022/11/29 07:48:20;;;;;;;5.70;4.60;;;;;;;9.49;97.29;98594.84;4984132;28;102615;-62
2022/11/29 07:50:48;;;;;;;7.37;5.67;;;;;;;9.42;96.75;98601.47;4988344;28;103953;-62
2022/11/29 07:53:21;;;;;;;7.83;5.87;;;;;;;9.43;96.71;98598.72;4988858;28;103922;-62
2022/11/29 07:55:49;;;;;;;6.53;5.90;;;;;;;9.43;96.39;98597.91;4987522;28;103199;-62
2022/11/29 07:58:18;;;;;;;5.20;4.70;;;;;;;9.26;97.10;98601.69;4973950;28;102583;-61
2022/11/29 08:00:46;;;;;;;5.43;4.97;;;;;;;9.41;97.06;98595.34;4971346;28;103910;-62
2022/11/29 08:03:15;;;;;;;6.87;5.20;;;;;;;9.39;96.21;98606.94;4963815;28;103957;-62
2022/11/29 08:05:45;;;;;;;3.93;3.63;;;;;;;9.54;96.73;98612.03;4976950;28;104308;-61
2022/11/29 08:08:14;;;;;;;6.37;5.20;;;;;;;9.36;96.44;98607.16;4995705;28;102752;-62
2022/11/29 08:10:42;;;;;;;4.70;4.30;;;;;;;9.33;96.72;98602.94;4989218;28;102723;-62
2022/11/29 08:13:10;;;;;;;5.13;4.63;;;;;;;9.25;98.15;98600.00;4993281;28;104380;-62
2022/11/29 08:15:44;;;;;;;5.87;5.37;;;;;;;9.28;97.69;98605.91;4984473;28;102968;-62
2022/11/29 08:18:13;;;;;;;6.40;5.13;;;;;;;9.18;98.33;98615.38;4982011;28;102532;-61
2022/11/29 08:20:43;;;;;;;4.77;4.23;;;;;;;9.13;99.43;98606.94;4962032;28;103768;-61
2022/11/29 08:23:12;;;;;;;6.27;4.63;;;;;;;8.93;100.00;98609.22;4989775;28;103311;-61
2022/11/29 08:25:40;;;;;;;4.60;4.20;;;;;;;9.18;99.85;98614.53;4982789;28;103282;-62
2022/11/29 08:28:10;;;;;;;4.20;3.80;;;;;;;9.25;99.80;98615.81;4987002;28;102564;-61
2022/11/29 08:30:38;;;;;;;4.77;4.37;;;;;;;9.30;98.86;98619.81;4985646;28;104433;-61
2022/11/29 08:33:06;;;;;;;5.77;4.20;;;;;;;9.27;99.16;98611.25;4988678;28;103390;-61
2022/11/29 08:35:34;;;;;;;7.03;5.50;;;;;;;9.29;98.71;98619.94;4992550;28;103238;-62
2022/11/29 08:38:04;;;;;;;5.93;4.70;;;;;;;9.31;99.08;98620.66;4979251;28;102860;-61
2022/11/29 08:40:32;;;;;;;4.03;3.63;;;;;;;9.45;99.20;98623.19;4992310;28;103835;-61
2022/11/29 08:43:02;;;;;;;3.90;3.60;;;;;;;9.50;97.96;98629.00;4983670;28;103202;-61
2022/11/29 08:45:30;;;;;;;4.43;4.03;;;;;;;9.29;98.39;98623.41;4989706;28;103346;-61
2022/11/29 08:47:58;;;;;;;4.40;4.00;;;;;;;9.42;98.68;98628.69;4990829;28;102625;-61
2022/11/29 08:50:26;;;;;;;4.20;3.80;;;;;;;9.39;97.89;98628.91;4988248;28;103112;-61
2022/11/29 08:55:41;;;;;;;4.87;4.37;;;;;;;9.34;98.10;98628.38;4988124;28;103276;-62
2022/11/29 08:58:12;;;;;;;5.93;4.30;;;;;;;8.97;100.00;98637.06;4985272;28;102614;-61
2022/11/29 09:00:44;;;;;;;5.67;5.07;;;;;;;8.88;100.00;98629.75;4987919;28;102704;-61
2022/11/29 09:06:04;;;;;;;5.40;4.30;;;;;;;9.39;100.00;98634.16;4976209;28;103345;-63
2022/11/29 09:08:39;;;;;;;6.60;5.27;;;;;;;9.44;99.21;98647.88;4972010;28;102824;-64
2022/11/29 09:11:12;;;;;;;5.60;4.97;;;;;;;9.35;99.48;98643.22;4970175;28;103294;-63
2022/11/29 09:13:40;;;;;;;5.40;4.80;;;;;;;9.36;100.00;98644.91;4970685;28;104173;-64
2022/11/29 09:16:10;;;;;;;6.17;5.00;;;;;;;9.10;100.00;98649.31;4965292;28;104040;-63
2022/11/29 09:18:40;;;;;;;6.50;5.63;;;;;;;9.16;100.00;98654.19;4984223;28;102658;-64
2022/11/29 09:21:11;;;;;;;9.53;5.53;;;;;;;9.09;100.00;98652.91;4989962;28;102674;-64
2022/11/29 09:23:41;;;;;;;8.37;5.80;;;;;;;9.07;100.00;98654.78;4987133;28;103243;-62
2022/11/29 09:26:15;;;;;;;6.73;5.13;;;;;;;9.20;100.00;98660.09;4994340;28;103450;-60
2022/11/29 09:28:43;;;;;;;11.93;9.17;;;;;;;8.91;100.00;98658.53;4989237;28;102634;-63
2022/11/29 09:31:13;;;;;;;10.97;7.37;;;;;;;9.08;100.00;98656.50;4986549;28;103270;-63
2022/11/29 09:33:42;;;;;;;20.07;14.23;;;;;;;9.02;100.00;98666.59;4986626;28;104384;-63
2022/11/29 09:36:11;;;;;;;15.67;11.07;;;;;;;9.10;100.00;98666.91;4969915;28;103241;-63
2022/11/29 09:38:39;;;;;;;14.57;10.33;;;;;;;9.09;100.00;98665.25;4993440;28;103489;-63
2022/11/29 09:41:23;;;;;;;15.87;10.60;;;;;;;9.27;100.00;98669.25;4986950;28;104434;-62
2022/11/29 09:44:02;;;;;;;15.20;10.97;;;;;;;9.12;100.00;98667.69;4985517;28;103845;-62
2022/11/29 09:46:43;;;;;;;20.27;12.73;;;;;;;9.22;100.00;98674.00;4991666;28;103341;-61
2022/11/29 09:49:29;;;;;;;17.37;11.97;;;;;;;9.35;100.00;98669.59;4970034;28;102857;-61
2022/11/29 09:52:05;;;;;;;17.37;11.17;;;;;;;9.21;100.00;98672.31;4997435;28;102942;-61
2022/11/29 09:54:42;;;;;;;16.30;11.77;;;;;;;9.34;100.00;98675.84;4967081;28;104435;-61
2022/11/29 09:57:14;;;;;;;13.80;10.23;;;;;;;9.27;100.00;98671.91;4987425;28;104049;-63
2022/11/29 09:59:47;;;;;;;14.17;10.40;;;;;;;9.07;100.00;98677.66;4981685;28;102781;-61
2022/11/29 10:02:20;;;;;;;13.37;9.97;;;;;;;9.20;100.00;98675.91;4969100;28;102714;-61
2022/11/29 10:04:53;;;;;;;11.07;8.10;;;;;;;9.35;100.00;98680.13;4992708;28;103230;-61
2022/11/29 10:07:27;;;;;;;13.40;9.67;;;;;;;9.04;100.00;98680.53;4988726;28;103193;-61
2022/11/29 10:10:02;;;;;;;13.23;8.83;;;;;;;9.12;100.00;98683.50;4992193;28;103166;-61
2022/11/29 10:12:37;;;;;;;13.87;10.03;;;;;;;8.99;100.00;98687.88;4984130;28;102677;-61
2022/11/29 10:15:12;;;;;;;12.70;9.10;;;;;;;8.88;100.00;98693.84;4982896;28;104188;-61
2022/11/29 10:17:45;;;;;;;15.30;9.87;;;;;;;9.16;100.00;98692.88;4996105;28;103219;-61
2022/11/29 10:20:15;;;;;;;11.17;8.67;;;;;;;8.86;100.00;98689.63;4972082;28;102723;-61
2022/11/29 10:22:48;;;;;;;13.87;9.80;;;;;;;8.85;100.00;98690.56;4988360;28;103754;-61
2022/11/29 10:25:21;;;;;;;13.30;8.47;;;;;;;9.00;100.00;98681.66;4991552;28;104031;-61
2022/11/29 10:27:50;;;;;;;14.67;9.60;;;;;;;9.30;100.00;98682.25;4973511;28;103239;-60
2022/11/29 10:30:18;;;;;;;14.57;8.80;;;;;;;8.92;100.00;98691.88;4974490;28;102740;-61
2022/11/29 10:32:50;;;;;;;13.93;9.97;;;;;;;8.97;100.00;98689.75;4992668;28;104343;-61
2022/11/29 10:35:19;;;;;;;12.70;9.43;;;;;;;9.06;100.00;98684.75;4992101;28;103643;-61
2022/11/29 10:37:50;;;;;;;10.57;8.00;;;;;;;9.11;100.00;98687.91;4966593;28;104403;-61
2022/11/29 10:40:42;;;;;;;11.83;8.60;;;;;;;9.13;100.00;98675.47;4981168;28;102915;-61
2022/11/29 10:43:13;;;;;;;11.90;7.73;;;;;;;9.03;100.00;98681.47;4984746;28;103853;-62
2022/11/29 10:45:48;;;;;;;10.77;7.80;;;;;;;8.98;100.00;98684.38;4988575;28;103824;-61
2022/11/29 10:48:19;;;;;;;11.73;7.47;;;;;;;8.97;100.00;98692.41;4986182;28;103265;-60
2022/11/29 10:50:48;;;;;;;9.30;7.27;;;;;;;9.18;100.00;98683.06;4981631;28;103030;-60
2022/11/29 10:53:18;;;;;;;9.27;7.50;;;;;;;9.31;99.88;98679.53;4967985;28;102925;-61
2022/11/29 10:55:49;;;;;;;7.80;7.00;;;;;;;9.08;99.67;98682.84;4968068;28;104307;-62
2022/11/29 10:58:23;;;;;;;8.53;7.37;;;;;;;9.16;100.00;98680.53;4983570;28;103189;-61
2022/11/29 11:00:58;;;;;;;11.27;8.47;;;;;;;9.10;100.00;98685.34;4994558;28;102635;-61
2022/11/29 11:03:34;;;;;;;12.73;9.27;;;;;;;8.72;100.00;98686.09;4982371;28;102648;-61
2022/11/29 11:06:06;;;;;;;12.47;9.50;;;;;;;8.96;100.00;98690.69;4987100;28;104118;-61
2022/11/29 11:08:35;;;;;;;11.47;8.33;;;;;;;9.09;100.00;98686.31;4989043;28;103171;-61
2022/11/29 11:11:06;;;;;;;14.13;10.40;;;;;;;9.10;100.00;98688.84;4966741;28;103052;-61
2022/11/29 11:13:38;;;;;;;12.50;9.63;;;;;;;9.18;100.00;98691.81;4983316;28;103912;-63
2022/11/29 11:16:15;;;;;;;12.17;10.87;;;;;;;8.63;100.00;98694.59;4987074;28;103271;-63
2022/11/29 11:18:44;;;;;;;10.93;9.47;;;;;;;8.98;100.00;98697.56;4990486;28;103171;-62
2022/11/29 11:21:14;;;;;;;11.93;9.13;;;;;;;8.80;100.00;98696.13;4992411;28;102655;-62
2022/11/29 11:23:51;;;;;;;11.60;9.03;;;;;;;8.68;100.00;98687.25;4989889;28;103531;-63
2022/11/29 11:26:19;;;;;;;10.13;7.73;;;;;;;8.49;100.00;98684.09;4990367;28;104361;-63
2022/11/29 11:28:53;;;;;;;9.13;6.70;;;;;;;8.47;100.00;98686.00;4986155;28;102676;-63
2022/11/29 11:31:30;;;;;;;8.60;6.83;;;;;;;8.55;100.00;98688.97;4991388;28;102700;-63
2022/11/29 11:34:24;;;;;;;7.50;6.70;;;;;;;8.99;100.00;98683.44;4994930;28;103207;-63
2022/11/29 11:36:52;;;;;;;7.53;6.70;;;;;;;8.80;100.00;98688.22;4990460;28;103368;-62
2022/11/29 11:39:22;;;;;;;7.30;6.40;;;;;;;8.73;100.00;98687.78;4987037;28;103321;-63
2022/11/29 11:44:48;;;;;;;8.77;7.83;;;;;;;8.84;100.00;98691.53;4966936;28;102951;-63
2022/11/29 11:47:19;;;;;;;8.73;7.70;;;;;;;8.85;100.00;98698.47;4969791;28;104192;-61
2022/11/29 11:49:50;;;;;;;7.73;6.93;;;;;;;9.13;100.00;98688.66;4992221;28;103397;-61
2022/11/29 11:52:23;;;;;;;8.53;7.73;;;;;;;8.97;100.00;98697.66;4976366;28;103075;-63
2022/11/29 11:54:54;;;;;;;7.90;7.10;;;;;;;8.72;100.00;98701.91;4989794;28;102809;-63
2022/11/29 11:57:24;;;;;;;7.47;6.67;;;;;;;8.78;100.00;98695.41;4985874;28;102723;-63
2022/11/29 11:59:55;;;;;;;7.53;6.80;;;;;;;8.81;99.32;98705.75;4973839;28;102967;-63
2022/11/29 12:02:40;;;;;;;7.80;7.00;;;;;;;8.74;100.00;98710.56;4986831;28;103171;-63
2022/11/29 12:05:15;;;;;;;8.03;7.23;;;;;;;8.79;100.00;98706.75;4968900;28;104368;-63
2022/11/29 12:07:48;;;;;;;7.13;6.43;;;;;;;8.78;100.00;98713.00;4991885;28;103245;-63
2022/11/29 12:10:39;;;;;;;8.73;7.83;;;;;;;8.79;98.91;98714.66;4986175;28;103376;-63
2022/11/29 12:13:16;;;;;;;8.40;7.60;;;;;;;8.99;99.28;98716.84;4989068;28;103108;-63
2022/11/29 12:15:49;;;;;;;9.00;8.10;;;;;;;9.17;98.81;98718.28;4992733;28;103755;-63
2022/11/29 12:18:24;;;;;;;7.63;6.87;;;;;;;9.28;98.65;98711.34;4984103;28;104037;-63
2022/11/29 12:20:57;;;;;;;8.73;7.93;;;;;;;8.91;99.09;98716.50;4990602;28;102709;-64
2022/11/29 12:23:35;;;;;;;11.20;9.50;;;;;;;8.98;98.46;98712.53;4969233;28;102719;-64
2022/11/29 12:26:10;;;;;;;9.23;8.13;;;;;;;8.93;99.06;98722.50;4987208;28;104186;-65
2022/11/29 12:28:46;;;;;;;9.80;8.80;;;;;;;8.99;99.40;98719.47;4972282;28;104149;-63
2022/11/29 12:31:37;;;;;;;11.33;9.90;;;;;;;8.87;98.66;98730.84;4992460;28;103037;-64
2022/11/29 12:34:21;;;;;;;16.43;10.20;;;;;;;8.64;99.44;98735.81;4988376;28;102650;-64
2022/11/29 12:36:57;;;;;;;12.87;9.20;;;;;;;9.06;100.00;98726.06;4988363;28;103895;-63
2022/11/29 12:39:48;;;;;;;12.87;7.97;;;;;;;9.08;98.49;98734.69;4984069;28;104024;-64
2022/11/29 12:42:32;;;;;;;11.50;8.10;;;;;;;9.34;98.52;98728.56;4985276;28;103222;-64
2022/11/29 12:45:14;;;;;;;12.57;8.30;;;;;;;9.53;98.15;98734.28;4988202;28;102657;-64
2022/11/29 12:47:52;;;;;;;14.00;8.60;;;;;;;9.84;96.71;98725.97;4991486;28;103926;-64
2022/11/29 12:50:33;;;;;;;9.00;7.70;;;;;;;9.61;95.76;98733.75;4982828;28;104111;-64
2022/11/29 12:53:18;;;;;;;8.17;7.13;;;;;;;9.28;97.43;98731.59;4986227;28;103271;-64
2022/11/29 12:56:05;;;;;;;6.80;6.20;;;;;;;8.88;98.21;98735.16;4970118;28;102675;-64
2022/11/29 12:58:43;;;;;;;9.03;8.13;;;;;;;8.80;98.57;98734.81;4986818;28;103370;-64
2022/11/29 13:01:24;;;;;;;10.00;9.00;;;;;;;9.00;99.41;98737.00;4990996;28;103292;-63
2022/11/29 13:03:59;;;;;;;9.07;8.17;;;;;;;8.98;98.55;98736.25;4986639;28;103296;-64
2022/11/29 13:06:39;;;;;;;7.43;6.73;;;;;;;9.21;97.21;98731.16;4988938;28;102640;-63
2022/11/29 13:09:48;;;;;;;8.23;7.43;;;;;;;9.15;97.30;98730.72;4987930;28;103913;-62
2022/11/29 13:12:21;;;;;;;7.37;6.67;;;;;;;9.28;96.51;98743.00;4990936;28;103235;-63
2022/11/29 13:15:00;;;;;;;7.63;6.93;;;;;;;9.03;96.33;98742.91;4991990;28;103241;-63